createdAt,value
2017-09-06T00:00:20.705Z,70.10
2017-09-06T00:02:48.930Z,69.40
2017-09-06T00:05:17.175Z,68.70
2017-09-06T00:07:46.278Z,68.50
2017-09-06T00:10:14.523Z,68.70
2017-09-06T00:12:42.766Z,68.70
2017-09-06T00:15:11.038Z,69.50
2017-09-06T00:17:39.282Z,69.20
2017-09-06T00:20:07.513Z,69.30
2017-09-06T00:22:36.109Z,72.90
2017-09-06T00:25:05.119Z,70.70
2017-09-06T00:27:33.367Z,70.70
2017-09-06T00:30:02.227Z,69.50
2017-09-06T00:32:30.530Z,69.70
2017-09-06T00:34:58.774Z,71.00
2017-09-06T00:37:27.034Z,70.00
2017-09-06T00:39:55.274Z,71.50
2017-09-06T00:42:23.514Z,71.00
2017-09-06T00:44:52.166Z,70.30
2017-09-06T00:47:20.410Z,69.60
2017-09-06T00:49:48.650Z,69.80
2017-09-06T00:52:17.306Z,69.60
2017-09-06T00:54:45.545Z,69.30
2017-09-06T00:57:13.786Z,69.10
2017-09-06T00:59:42.059Z,68.90
2017-09-06T01:02:10.307Z,69.40
2017-09-06T01:04:38.545Z,68.90
2017-09-06T01:07:08.478Z,69.30
2017-09-06T01:09:36.718Z,70.50
2017-09-06T01:12:04.959Z,71.40
2017-09-06T01:14:33.275Z,70.50
2017-09-06T01:17:01.511Z,75.60
2017-09-06T01:19:29.754Z,72.00
2017-09-06T01:21:58.287Z,72.60
2017-09-06T01:24:27.766Z,72.70
2017-09-06T01:26:56.005Z,72.50
2017-09-06T01:29:24.273Z,73.10
2017-09-06T01:31:52.514Z,72.00
2017-09-06T01:34:20.759Z,72.20
2017-09-06T01:36:49.362Z,75.40
2017-09-06T01:39:17.614Z,71.70
2017-09-06T01:41:45.861Z,75.60
2017-09-06T01:44:14.145Z,74.60
2017-09-06T01:46:42.394Z,74.60
2017-09-06T01:49:10.638Z,72.10
2017-09-06T01:51:38.902Z,73.80
2017-09-06T01:54:07.152Z,74.00
2017-09-06T01:56:35.706Z,73.40
2017-09-06T01:59:04.462Z,71.80
2017-09-06T02:01:32.702Z,73.80
2017-09-06T02:04:00.978Z,75.60
2017-09-06T02:06:29.250Z,76.60
2017-09-06T02:08:58.255Z,72.90
2017-09-06T02:11:26.498Z,73.00
2017-09-06T02:13:54.762Z,74.00
2017-09-06T02:16:22.999Z,75.70
2017-09-06T02:18:51.242Z,75.60
2017-09-06T02:21:20.190Z,77.40
2017-09-06T02:23:48.427Z,77.00
2017-09-06T02:26:16.891Z,78.40
2017-09-06T02:28:45.918Z,73.90
2017-09-06T02:31:14.160Z,74.00
2017-09-06T02:33:42.414Z,77.60
2017-09-06T02:36:11.071Z,77.50
2017-09-06T02:38:39.310Z,78.70
2017-09-06T02:41:07.551Z,76.60
2017-09-06T02:43:35.998Z,75.10
2017-09-06T02:46:04.242Z,77.60
2017-09-06T02:48:32.482Z,77.20
2017-09-06T02:51:00.751Z,76.90
2017-09-06T02:53:28.989Z,78.60
2017-09-06T02:55:57.234Z,78.20
2017-09-06T02:58:25.510Z,80.10
2017-09-06T03:00:53.757Z,77.90
2017-09-06T03:03:21.999Z,80.10
2017-09-06T03:05:50.959Z,80.20
2017-09-06T03:08:20.236Z,77.80
2017-09-06T03:10:48.474Z,78.00
2017-09-06T03:13:17.067Z,77.60
2017-09-06T03:15:45.307Z,80.10
2017-09-06T03:18:13.550Z,82.70
2017-09-06T03:20:41.812Z,78.00
2017-09-06T03:23:10.054Z,82.10
2017-09-06T03:25:38.302Z,81.10
2017-09-06T03:28:07.959Z,81.00
2017-09-06T03:30:36.203Z,80.90
2017-09-06T03:33:04.447Z,82.30
2017-09-06T03:35:32.717Z,78.90
2017-09-06T03:38:00.963Z,79.60
2017-09-06T03:40:29.233Z,78.10
2017-09-06T03:42:57.497Z,79.50
2017-09-06T03:45:25.739Z,80.40
2017-09-06T03:47:53.981Z,79.40
2017-09-06T03:50:22.751Z,80.70
2017-09-06T03:52:50.995Z,80.40
2017-09-06T03:55:19.238Z,80.30
2017-09-06T03:57:47.530Z,77.80
2017-09-06T04:00:16.537Z,77.90
2017-09-06T04:02:44.810Z,78.40
2017-09-06T04:05:13.058Z,77.40
2017-09-06T04:07:41.302Z,77.50
2017-09-06T04:10:09.563Z,78.80
2017-09-06T04:12:38.475Z,78.60
2017-09-06T04:15:06.715Z,77.70
2017-09-06T04:17:34.955Z,78.70
2017-09-06T04:20:03.227Z,78.00
2017-09-06T04:22:31.462Z,77.50
2017-09-06T04:24:59.722Z,78.60
2017-09-06T04:27:29.178Z,78.10
2017-09-06T04:29:57.690Z,78.00
2017-09-06T04:32:25.934Z,78.70
2017-09-06T04:34:54.810Z,80.90
2017-09-06T04:37:23.064Z,79.00
2017-09-06T04:39:51.315Z,77.30
2017-09-06T04:42:19.582Z,79.80
2017-09-06T04:44:47.823Z,79.20
2017-09-06T04:47:16.064Z,78.70
2017-09-06T04:49:44.330Z,79.70
2017-09-06T04:52:12.577Z,78.80
2017-09-06T04:54:40.813Z,80.10
2017-09-06T04:57:09.298Z,80.20
2017-09-06T04:59:37.560Z,78.20
2017-09-06T05:02:05.803Z,80.70
2017-09-06T05:04:34.434Z,79.80
2017-09-06T05:07:02.670Z,78.10
2017-09-06T05:09:30.916Z,77.60
2017-09-06T05:11:59.182Z,80.40
2017-09-06T05:14:27.426Z,80.90
2017-09-06T05:16:55.669Z,79.80
2017-09-06T05:19:25.015Z,79.80
2017-09-06T05:21:53.254Z,79.70
2017-09-06T05:24:21.496Z,78.90
2017-09-06T05:26:49.767Z,78.70
2017-09-06T05:29:18.010Z,79.00
2017-09-06T05:31:46.562Z,78.20
2017-09-06T05:34:14.861Z,77.70
2017-09-06T05:36:43.111Z,78.10
2017-09-06T05:39:11.357Z,81.80
2017-09-06T05:41:40.552Z,85.30
2017-09-06T05:44:09.545Z,82.70
2017-09-06T05:46:38.406Z,85.80
2017-09-06T05:49:06.727Z,83.40
2017-09-06T05:51:34.978Z,84.10
2017-09-06T05:54:04.155Z,81.80
2017-09-06T05:56:32.434Z,81.50
2017-09-06T05:59:00.670Z,81.80
2017-09-06T06:01:28.922Z,80.60
2017-09-06T06:03:57.579Z,80.10
2017-09-06T06:06:25.822Z,80.80
2017-09-06T06:08:54.065Z,80.70
2017-09-06T06:11:22.334Z,79.20
2017-09-06T06:13:50.574Z,79.50
2017-09-06T06:16:18.831Z,79.30
2017-09-06T06:18:47.647Z,80.00
2017-09-06T06:21:15.875Z,78.90
2017-09-06T06:23:44.115Z,79.00
2017-09-06T06:26:12.790Z,77.90
2017-09-06T06:28:41.036Z,78.10
2017-09-06T06:31:09.282Z,78.10
2017-09-06T06:33:37.902Z,77.70
2017-09-06T06:36:06.138Z,76.10
2017-09-06T06:38:34.378Z,74.70
2017-09-06T06:41:02.647Z,76.10
2017-09-06T06:43:30.890Z,77.20
2017-09-06T06:45:59.135Z,76.50
2017-09-06T06:48:27.897Z,75.50
2017-09-06T06:50:56.146Z,75.10
2017-09-06T06:53:24.387Z,75.00
2017-09-06T06:55:53.033Z,74.40
2017-09-06T06:58:21.270Z,74.20
2017-09-06T07:00:49.515Z,74.10
2017-09-06T07:03:17.794Z,73.60
2017-09-06T07:05:46.035Z,72.70
2017-09-06T07:08:14.274Z,73.00
2017-09-06T07:10:43.903Z,72.90
2017-09-06T07:13:12.154Z,72.90
2017-09-06T07:15:40.402Z,72.60
2017-09-06T07:18:08.718Z,72.70
2017-09-06T07:20:37.726Z,73.10
2017-09-06T07:23:05.971Z,73.10
2017-09-06T07:25:34.239Z,73.10
2017-09-06T07:28:02.479Z,74.20
2017-09-06T07:30:30.724Z,74.10
2017-09-06T07:32:59.694Z,74.60
2017-09-06T07:35:28.282Z,74.10
2017-09-06T07:37:56.527Z,74.10
2017-09-06T07:40:24.795Z,73.60
2017-09-06T07:42:53.036Z,73.50
2017-09-06T07:45:21.279Z,71.00
2017-09-06T07:47:49.546Z,69.20
2017-09-06T07:50:17.794Z,67.50
2017-09-06T07:52:46.038Z,67.90
2017-09-06T07:55:14.742Z,68.00
2017-09-06T07:57:42.983Z,65.70
2017-09-06T08:00:11.223Z,64.30
2017-09-06T08:02:39.491Z,64.50
2017-09-06T08:05:08.447Z,62.80
2017-09-06T08:07:36.699Z,62.70
2017-09-06T08:10:05.322Z,62.20
2017-09-06T08:12:33.566Z,62.70
2017-09-06T08:15:01.798Z,62.40
2017-09-06T08:17:30.462Z,62.60
2017-09-06T08:19:58.707Z,62.10
2017-09-06T08:22:26.993Z,62.20
2017-09-06T08:24:55.846Z,62.80
2017-09-06T08:27:24.088Z,63.80
2017-09-06T08:29:52.326Z,63.00
2017-09-06T08:32:20.603Z,61.30
2017-09-06T08:34:48.843Z,61.40
2017-09-06T08:37:17.458Z,60.60
2017-09-06T08:39:46.200Z,60.40
2017-09-06T08:42:14.447Z,59.90
2017-09-06T08:44:42.695Z,60.40
2017-09-06T08:47:11.849Z,60.20
2017-09-06T08:49:40.793Z,60.40
2017-09-06T08:52:09.059Z,60.90
2017-09-06T08:54:37.332Z,61.70
2017-09-06T08:57:05.571Z,62.20
2017-09-06T08:59:34.289Z,63.40
2017-09-06T09:02:03.131Z,64.20
2017-09-06T09:04:31.369Z,62.30
2017-09-06T09:06:59.610Z,63.40
2017-09-06T09:09:27.888Z,62.90
2017-09-06T09:11:56.123Z,68.10
2017-09-06T09:14:24.372Z,72.30
2017-09-06T09:16:52.638Z,74.10
2017-09-06T09:19:20.885Z,74.30
2017-09-06T09:21:49.126Z,72.50
2017-09-06T09:24:18.249Z,73.80
2017-09-06T09:26:46.495Z,78.20
2017-09-06T09:29:14.743Z,81.90
2017-09-06T09:31:43.006Z,85.00
2017-09-06T09:34:11.246Z,84.60
2017-09-06T09:36:39.487Z,91.40
2017-09-06T09:39:08.186Z,92.60
2017-09-06T09:41:36.426Z,93.10
2017-09-06T09:44:05.434Z,95.00
2017-09-06T09:46:34.485Z,94.80
2017-09-06T09:49:02.702Z,94.30
2017-09-06T09:51:30.945Z,94.50
2017-09-06T09:53:59.208Z,93.40
2017-09-06T09:56:28.111Z,93.30
2017-09-06T09:58:57.114Z,93.80
2017-09-06T10:01:25.768Z,93.80
2017-09-06T10:03:54.011Z,92.40
2017-09-06T10:06:22.246Z,92.10
2017-09-06T10:08:50.911Z,92.10
2017-09-06T10:11:19.154Z,92.30
2017-09-06T10:13:47.414Z,91.70
2017-09-06T10:16:15.682Z,90.60
2017-09-06T10:18:43.927Z,91.30
2017-09-06T10:21:12.170Z,91.70
2017-09-06T10:23:40.442Z,91.60
2017-09-06T10:26:08.686Z,91.90
2017-09-06T10:28:36.925Z,90.40
2017-09-06T10:31:05.914Z,89.80
2017-09-06T10:33:34.166Z,80.50
2017-09-06T10:36:02.416Z,75.60
2017-09-06T10:38:31.763Z,70.40
2017-09-06T10:41:00.399Z,70.40
2017-09-06T10:43:28.641Z,72.80
2017-09-06T10:45:56.915Z,77.10
2017-09-06T10:48:25.154Z,76.60
2017-09-06T10:50:53.401Z,81.30
2017-09-06T10:53:22.034Z,88.60
2017-09-06T10:55:50.274Z,91.40
2017-09-06T10:58:18.522Z,92.80
2017-09-06T11:00:46.795Z,92.90
2017-09-06T11:03:15.043Z,92.20
2017-09-06T11:05:43.291Z,91.00
2017-09-06T11:08:11.550Z,90.50
2017-09-06T11:10:40.026Z,88.10
2017-09-06T11:13:08.278Z,77.70
2017-09-06T11:15:37.446Z,73.50
2017-09-06T11:18:05.746Z,67.40
2017-09-06T11:20:33.982Z,64.80
2017-09-06T11:23:03.113Z,63.60
2017-09-06T11:25:32.054Z,60.50
2017-09-06T11:28:00.294Z,63.20
2017-09-06T11:30:28.569Z,59.40
2017-09-06T11:32:56.799Z,57.60
2017-09-06T11:35:25.042Z,56.10
2017-09-06T11:37:53.469Z,55.20
2017-09-06T11:40:21.713Z,53.40
2017-09-06T11:42:50.860Z,51.10
2017-09-06T11:45:19.534Z,50.30
2017-09-06T11:47:47.786Z,49.40
2017-09-06T11:50:16.026Z,48.40
2017-09-06T11:52:44.792Z,47.80
2017-09-06T11:55:13.015Z,48.50
2017-09-06T11:57:42.022Z,45.90
2017-09-06T12:00:10.347Z,45.80
2017-09-06T12:02:38.594Z,44.30
2017-09-06T12:05:06.834Z,44.00
2017-09-06T12:07:35.097Z,43.90
2017-09-06T12:10:03.347Z,43.70
2017-09-06T12:12:31.582Z,42.40
2017-09-06T12:14:59.859Z,42.80
2017-09-06T12:17:28.111Z,42.00
2017-09-06T12:19:56.691Z,42.80
2017-09-06T12:22:24.995Z,42.70
2017-09-06T12:24:53.242Z,42.80
2017-09-06T12:27:21.482Z,42.80
2017-09-06T12:29:50.714Z,42.40
2017-09-06T12:32:18.949Z,40.10
2017-09-06T12:34:47.193Z,40.70
2017-09-06T12:37:15.450Z,38.90
2017-09-06T12:39:43.695Z,40.30
2017-09-06T12:42:11.943Z,42.70
2017-09-06T12:44:40.938Z,42.90
2017-09-06T12:47:09.181Z,41.70
2017-09-06T12:49:37.424Z,41.70
2017-09-06T12:52:05.695Z,40.00
2017-09-06T12:54:33.934Z,40.00
2017-09-06T12:57:02.959Z,40.90
2017-09-06T12:59:31.206Z,40.90
2017-09-06T13:01:59.450Z,39.90
2017-09-06T13:04:27.691Z,39.50
2017-09-06T13:06:56.469Z,38.70
2017-09-06T13:09:36.435Z,37.90
2017-09-06T13:12:04.710Z,39.10
2017-09-06T13:14:32.954Z,39.40
2017-09-06T13:17:01.194Z,39.00
2017-09-06T13:19:29.466Z,38.90
2017-09-06T13:21:57.718Z,38.40
2017-09-06T13:24:25.954Z,38.50
2017-09-06T13:26:54.750Z,37.20
2017-09-06T13:29:22.991Z,37.40
2017-09-06T13:31:51.231Z,37.90
2017-09-06T13:34:19.506Z,38.40
2017-09-06T13:36:47.750Z,38.00
2017-09-06T13:39:15.990Z,37.40
2017-09-06T13:41:45.279Z,36.30
2017-09-06T13:44:13.522Z,36.30
2017-09-06T13:46:42.042Z,37.60
2017-09-06T13:49:10.694Z,39.20
2017-09-06T13:51:38.947Z,39.80
2017-09-06T13:54:07.352Z,37.70
2017-09-06T13:56:36.410Z,38.20
2017-09-06T13:59:04.651Z,40.70
2017-09-06T14:01:32.894Z,43.30
2017-09-06T14:04:01.173Z,44.40
2017-09-06T14:06:29.418Z,42.80
2017-09-06T14:08:57.660Z,40.30
2017-09-06T14:11:26.513Z,39.30
2017-09-06T14:13:54.742Z,39.60
2017-09-06T14:16:22.987Z,39.30
2017-09-06T14:18:51.520Z,39.00
2017-09-06T14:21:19.765Z,38.80
2017-09-06T14:23:48.014Z,39.70
2017-09-06T14:26:16.288Z,39.90
2017-09-06T14:28:44.523Z,41.00
2017-09-06T14:31:12.770Z,42.50
2017-09-06T14:33:41.597Z,43.70
2017-09-06T14:36:09.838Z,45.10
2017-09-06T14:38:38.283Z,45.40
2017-09-06T14:41:06.816Z,45.60
2017-09-06T14:43:35.143Z,45.20
2017-09-06T14:46:03.386Z,45.40
2017-09-06T14:48:32.609Z,45.20
2017-09-06T14:51:00.831Z,44.10
2017-09-06T14:53:29.073Z,43.20
2017-09-06T14:55:57.749Z,42.70
2017-09-06T14:58:25.990Z,41.90
2017-09-06T15:00:54.251Z,40.80
2017-09-06T15:03:22.579Z,38.70
2017-09-06T15:05:50.879Z,38.30
2017-09-06T15:08:20.077Z,38.10
2017-09-06T15:10:48.390Z,38.10
2017-09-06T15:13:16.631Z,37.00
2017-09-06T15:15:44.871Z,37.40
2017-09-06T15:18:13.655Z,38.50
2017-09-06T15:20:41.897Z,39.80
2017-09-06T15:23:10.136Z,39.70
2017-09-06T15:25:39.062Z,39.00
2017-09-06T15:28:07.307Z,39.60
2017-09-06T15:30:35.547Z,40.00
2017-09-06T15:33:06.152Z,39.70
2017-09-06T15:35:34.427Z,39.10
2017-09-06T15:38:02.687Z,37.90
2017-09-06T15:40:31.834Z,38.00
2017-09-06T15:43:00.107Z,37.90
2017-09-06T15:45:28.686Z,38.50
2017-09-06T15:47:58.038Z,38.90
2017-09-06T15:50:26.538Z,39.40
2017-09-06T15:52:54.883Z,39.30
2017-09-06T15:55:23.248Z,39.50
2017-09-06T15:57:51.722Z,39.20
2017-09-06T16:00:20.027Z,38.00
2017-09-06T16:02:48.494Z,37.20
2017-09-06T16:05:16.727Z,36.60
2017-09-06T16:07:45.145Z,35.70
2017-09-06T16:10:13.930Z,36.60
2017-09-06T16:12:42.178Z,35.70
2017-09-06T16:15:10.426Z,35.60
2017-09-06T16:17:38.874Z,35.90
2017-09-06T16:20:07.118Z,36.20
2017-09-06T16:22:35.358Z,36.80
2017-09-06T16:25:03.682Z,36.80
2017-09-06T16:27:33.065Z,37.20
2017-09-06T16:30:02.238Z,37.10
2017-09-06T16:32:32.119Z,37.60
2017-09-06T16:35:01.318Z,37.60
2017-09-06T16:37:32.776Z,37.50
2017-09-06T16:40:01.039Z,37.80
2017-09-06T16:42:29.278Z,38.20
2017-09-06T16:44:57.530Z,37.80
2017-09-06T16:47:26.162Z,37.90
2017-09-06T16:49:54.406Z,37.30
2017-09-06T16:52:23.391Z,37.40
2017-09-06T16:54:51.658Z,37.10
2017-09-06T16:57:19.902Z,37.50
2017-09-06T16:59:48.158Z,37.90
2017-09-06T17:02:16.559Z,38.90
2017-09-06T17:04:44.795Z,39.40
2017-09-06T17:07:13.051Z,39.50
2017-09-06T17:09:42.357Z,39.90
2017-09-06T17:12:10.799Z,40.30
2017-09-06T17:14:39.075Z,40.40
2017-09-06T17:17:07.349Z,40.40
2017-09-06T17:19:35.602Z,40.20
2017-09-06T17:22:03.846Z,39.70
2017-09-06T17:24:32.793Z,40.00
2017-09-06T17:27:01.057Z,40.20
2017-09-06T17:29:29.306Z,40.60
2017-09-06T17:31:57.982Z,40.80
2017-09-06T17:34:26.222Z,41.30
2017-09-06T17:36:54.458Z,41.60
2017-09-06T17:39:22.726Z,42.10
2017-09-06T17:41:50.970Z,42.20
2017-09-06T17:44:19.981Z,42.30
2017-09-06T17:46:48.262Z,42.30
2017-09-06T17:49:16.506Z,42.70
2017-09-06T17:51:44.749Z,42.80
2017-09-06T17:54:13.843Z,42.90
2017-09-06T17:56:42.081Z,42.80
2017-09-06T17:59:10.330Z,43.20
2017-09-06T18:01:38.980Z,43.20
2017-09-06T18:04:09.419Z,43.60
2017-09-06T18:06:37.991Z,43.90
2017-09-06T18:09:06.266Z,43.60
2017-09-06T18:11:34.494Z,44.00
2017-09-06T18:14:02.779Z,44.20
2017-09-06T18:16:31.106Z,44.70
2017-09-06T18:18:59.354Z,44.20
2017-09-06T18:21:27.598Z,44.00
2017-09-06T18:23:57.146Z,44.20
2017-09-06T18:26:25.750Z,44.20
2017-09-06T18:28:54.017Z,44.40
2017-09-06T18:31:23.459Z,44.50
2017-09-06T18:33:51.803Z,44.70
2017-09-06T18:36:20.216Z,44.90
2017-09-06T18:38:48.962Z,45.40
2017-09-06T18:41:17.258Z,45.40
2017-09-06T18:43:48.698Z,45.00
2017-09-06T18:46:18.039Z,45.40
2017-09-06T18:48:46.388Z,45.30
2017-09-06T18:51:14.773Z,45.00
2017-09-06T18:53:45.036Z,45.30
2017-09-06T18:56:13.666Z,45.40
2017-09-06T18:58:42.050Z,45.30
2017-09-06T19:01:10.690Z,45.30
2017-09-06T19:03:39.158Z,45.40
2017-09-06T19:06:07.502Z,45.20
2017-09-06T19:08:35.786Z,45.70
2017-09-06T19:11:04.949Z,45.50
2017-09-06T19:13:33.198Z,45.50
2017-09-06T19:16:01.651Z,45.40
2017-09-06T19:18:29.893Z,45.20
2017-09-06T19:20:58.953Z,45.40
2017-09-06T19:23:27.269Z,45.60
2017-09-06T19:25:55.510Z,45.50
2017-09-06T19:28:23.763Z,45.00
2017-09-06T19:30:52.097Z,44.90
2017-09-06T19:33:20.339Z,45.00
2017-09-06T19:35:48.736Z,45.30
2017-09-06T19:38:17.082Z,45.00
2017-09-06T19:40:45.317Z,45.20
2017-09-06T19:43:13.719Z,45.40
2017-09-06T19:45:42.034Z,45.40
2017-09-06T19:48:10.283Z,45.60
2017-09-06T19:50:39.303Z,45.80
2017-09-06T19:53:07.567Z,45.80
2017-09-06T19:55:35.814Z,45.70
2017-09-06T19:58:05.042Z,45.80
2017-09-06T20:00:33.754Z,46.00
2017-09-06T20:03:02.064Z,46.40
2017-09-06T20:05:30.941Z,45.90
2017-09-06T20:07:59.277Z,46.20
2017-09-06T20:10:27.526Z,46.20
2017-09-06T20:12:55.982Z,46.50
2017-09-06T20:15:24.233Z,46.90
2017-09-06T20:17:52.474Z,46.70
2017-09-06T20:20:20.726Z,47.00
2017-09-06T20:22:48.982Z,47.00
2017-09-06T20:25:17.223Z,47.10
2017-09-06T20:27:45.462Z,47.30
2017-09-06T20:30:14.307Z,47.50
2017-09-06T20:32:42.546Z,47.60
2017-09-06T20:35:10.786Z,48.30
2017-09-06T20:37:39.086Z,48.30
2017-09-06T20:40:07.355Z,48.80
2017-09-06T20:42:35.586Z,49.10
2017-09-06T20:45:03.858Z,49.20
2017-09-06T20:47:32.097Z,49.20
2017-09-06T20:50:00.343Z,50.00
2017-09-06T20:52:28.671Z,50.30
2017-09-06T20:54:56.914Z,50.60
2017-09-06T20:57:25.160Z,50.90
2017-09-06T20:59:54.671Z,51.60
2017-09-06T21:02:22.904Z,51.90
2017-09-06T21:04:51.151Z,52.20
2017-09-06T21:07:19.419Z,52.70
2017-09-06T21:09:47.668Z,53.00
2017-09-06T21:12:15.900Z,52.40
2017-09-06T21:14:44.666Z,53.10
2017-09-06T21:17:13.678Z,52.90
2017-09-06T21:19:41.919Z,52.80
2017-09-06T21:22:10.693Z,53.90
2017-09-06T21:24:38.956Z,53.60
2017-09-06T21:27:07.202Z,53.70
2017-09-06T21:29:35.470Z,53.60
2017-09-06T21:32:03.715Z,54.10
2017-09-06T21:34:31.972Z,54.20
2017-09-06T21:37:00.422Z,54.20
2017-09-06T21:39:28.662Z,54.60
2017-09-06T21:41:56.910Z,55.30
2017-09-06T21:44:25.169Z,55.80
2017-09-06T21:46:53.419Z,55.60
2017-09-06T21:49:21.666Z,55.30
2017-09-06T21:51:49.942Z,55.80
2017-09-06T21:54:18.191Z,55.30
2017-09-06T21:56:46.426Z,55.60
2017-09-06T21:59:15.135Z,55.80
2017-09-06T22:01:43.947Z,56.30
2017-09-06T22:04:12.194Z,57.10
2017-09-06T22:06:40.461Z,56.90
2017-09-06T22:09:08.698Z,57.10
2017-09-06T22:11:36.949Z,58.10
2017-09-06T22:14:05.206Z,57.90
2017-09-06T22:16:33.458Z,57.90
2017-09-06T22:19:01.707Z,57.70
2017-09-06T22:21:30.442Z,57.90
2017-09-06T22:23:58.694Z,59.20
2017-09-06T22:26:26.926Z,59.50
2017-09-06T22:28:55.200Z,59.40
2017-09-06T22:31:23.442Z,58.80
2017-09-06T22:33:51.682Z,59.40
2017-09-06T22:36:19.946Z,59.40
2017-09-06T22:38:48.197Z,59.80
2017-09-06T22:41:16.431Z,59.90
2017-09-06T22:43:45.390Z,60.00
2017-09-06T22:46:13.851Z,59.60
2017-09-06T22:48:42.094Z,59.20
2017-09-06T22:51:10.362Z,58.60
2017-09-06T22:53:38.602Z,58.50
2017-09-06T22:56:06.846Z,59.60
2017-09-06T22:58:35.107Z,60.70
2017-09-06T23:01:03.348Z,59.90
2017-09-06T23:03:31.947Z,61.00
2017-09-06T23:06:00.650Z,59.50
2017-09-06T23:08:28.894Z,59.00
2017-09-06T23:10:57.135Z,59.90
2017-09-06T23:13:25.406Z,60.20
2017-09-06T23:15:53.650Z,59.50
2017-09-06T23:18:21.894Z,60.90
2017-09-06T23:20:50.572Z,60.20
2017-09-06T23:23:18.813Z,60.00
2017-09-06T23:25:47.059Z,59.80
2017-09-06T23:28:15.756Z,60.00
2017-09-06T23:30:43.993Z,60.00
2017-09-06T23:33:12.235Z,59.90
2017-09-06T23:35:40.511Z,59.60
2017-09-06T23:38:08.756Z,61.00
2017-09-06T23:40:36.995Z,60.70
2017-09-06T23:43:06.028Z,61.30
2017-09-06T23:45:34.481Z,60.30
2017-09-06T23:48:02.706Z,60.50
2017-09-06T23:50:31.478Z,59.50
2017-09-06T23:52:59.719Z,60.60
2017-09-06T23:55:27.962Z,60.00
2017-09-06T23:57:56.230Z,60.90
